Observation data for Friona on 01/21/2019      Previous  Date  Next       Current Mesonet Observations  Soil Data  Daily Summary Page  Observations in Plain Language
KFAS 210600Z 21015KT 06/M04 A2997 RMK A01 T00571037  RH  051%=      5-min Rain = 0
KFAS 210605Z 21014KT 06/M04 A2997 RMK A01 T00571038  RH  051%=      5-min Rain = 0
KFAS 210610Z 21012KT 06/M04 A2998 RMK A01 T00561038  RH  051%=      5-min Rain = 0
KFAS 210615Z 22012G17KT 06/M04 A2997 RMK A01 T00551038  RH  051%=      5-min Rain = 0
KFAS 210620Z 22014KT 06/M04 A2997 RMK A01 T00611041  RH  048%=      5-min Rain = 0
KFAS 210625Z 22017G22KT 07/M04 A2997 RMK A01 T00661043  RH  046%=      5-min Rain = 0
KFAS 210630Z 23015G20KT 07/M04 A2996 RMK A01 T00681044  RH  045%=      5-min Rain = 0
KFAS 210635Z 23012KT 06/M04 A2996 RMK A01 T00641043  RH  046%=      5-min Rain = 0
KFAS 210640Z 23012KT 06/M04 A2996 RMK A01 T00601042  RH  048%=      5-min Rain = 0
KFAS 210645Z 23012KT 06/M04 A2996 RMK A01 T00591042  RH  048%=      5-min Rain = 0
KFAS 210650Z 23012G18KT 06/M04 A2996 RMK A01 T00641044  RH  046%=      5-min Rain = 0
KFAS 210655Z 23012KT 07/M05 A2995 RMK A01 T00681046  RH  044%=      5-min Rain = 0
KFAS 210700Z 24012KT 07/M05 A2995 RMK A01 T00681046  RH  044%=      5-min Rain = 0
KFAS 210705Z 24012KT 07/M05 A2995 RMK A01 T00661047  RH  044%=      5-min Rain = 0
KFAS 210710Z 24011KT 07/M05 A2995 RMK A01 T00661047  RH  044%=      5-min Rain = 0
KFAS 210715Z 24011KT 07/M05 A2995 RMK A01 T00651047  RH  045%=      5-min Rain = 0
KFAS 210720Z 24009KT 06/M05 A2995 RMK A01 T00621046  RH  046%=      5-min Rain = 0
KFAS 210725Z 25009KT 06/M05 A2995 RMK A01 T00571046  RH  048%=      5-min Rain = 0
KFAS 210730Z 26007KT 05/M05 A2995 RMK A01 T00531046  RH  049%=      5-min Rain = 0
KFAS 210735Z 27005KT 05/M05 A2995 RMK A01 T00501046  RH  050%=      5-min Rain = 0
KFAS 210740Z 28005KT 04/M05 A2994 RMK A01 T00361046  RH  055%=      5-min Rain = 0
KFAS 210745Z 27005KT 03/M05 A2994 RMK A01 T00251046  RH  060%=      5-min Rain = 0
KFAS 210750Z 24004KT 02/M05 A2993 RMK A01 T00191046  RH  062%=      5-min Rain = 0
KFAS 210755Z 23005KT 02/M04 A2993 RMK A01 T00181044  RH  064%=      5-min Rain = 0
KFAS 210800Z 23006KT 02/M04 A2993 RMK A01 T00191041  RH  064%=      5-min Rain = 0
KFAS 210805Z 24006KT 02/M04 A2993 RMK A01 T00191041  RH  065%=      5-min Rain = 0
KFAS 210810Z 25006KT 02/M04 A2993 RMK A01 T00211042  RH  064%=      5-min Rain = 0
KFAS 210815Z 26006KT 02/M04 A2994 RMK A01 T00241044  RH  061%=      5-min Rain = 0
KFAS 210820Z 26005KT 02/M05 A2993 RMK A01 T00201046  RH  062%=      5-min Rain = 0
KFAS 210825Z 25005KT 01/M05 A2993 RMK A01 T00091046  RH  067%=      5-min Rain = 0
KFAS 210830Z 25005KT 01/M04 A2993 RMK A01 T00091041  RH  069%=      5-min Rain = 0
KFAS 210835Z 26005KT 01/M04 A2993 RMK A01 T00131042  RH  067%=      5-min Rain = 0
KFAS 210840Z 26006KT 02/M04 A2993 RMK A01 T00151042  RH  066%=      5-min Rain = 0
KFAS 210845Z 26005KT 02/M04 A2992 RMK A01 T00161043  RH  065%=      5-min Rain = 0
KFAS 210850Z 26005KT 02/M04 A2992 RMK A01 T00171042  RH  065%=      5-min Rain = 0
KFAS 210855Z 23004KT 02/M04 A2992 RMK A01 T00181043  RH  064%=      5-min Rain = 0
KFAS 210900Z 23004KT 02/M04 A2991 RMK A01 T00161043  RH  065%=      5-min Rain = 0
KFAS 210905Z 22004KT 02/M04 A2991 RMK A01 T00161044  RH  065%=      5-min Rain = 0
KFAS 210910Z 21005KT 01/M04 A2991 RMK A01 T00121044  RH  067%=      5-min Rain = 0
KFAS 210915Z 21006KT 01/M04 A299 RMK A01 T00111044  RH  067%=      5-min Rain = 0
KFAS 210920Z 22006KT 01/M04 A299 RMK A01 T00121040  RH  068%=      5-min Rain = 0
KFAS 210925Z 22007KT 02/M04 A2989 RMK A01 T00151037  RH  069%=      5-min Rain = 0
KFAS 210930Z 22007KT 02/M03 A2989 RMK A01 T00221033  RH  067%=      5-min Rain = 0
KFAS 210935Z 22007KT 03/M03 A2989 RMK A01 T00271033  RH  065%=      5-min Rain = 0
KFAS 210940Z 22007KT 03/M03 A2989 RMK A01 T00301032  RH  064%=      5-min Rain = 0
KFAS 210945Z 23008KT 04/M03 A2988 RMK A01 T00361031  RH  062%=      5-min Rain = 0
KFAS 210950Z 23008KT 04/M03 A2988 RMK A01 T00401032  RH  060%=      5-min Rain = 0
KFAS 210955Z 23008KT 04/M03 A2988 RMK A01 T00411032  RH  059%=      5-min Rain = 0
KFAS 211000Z 22008KT 04/M03 A2987 RMK A01 T00401032  RH  060%=      5-min Rain = 0
KFAS 211005Z 23008KT 04/M03 A2987 RMK A01 T00371032  RH  061%=      5-min Rain = 0
KFAS 211010Z 24008KT 04/M03 A2987 RMK A01 T00371031  RH  061%=      5-min Rain = 0
KFAS 211015Z 24010KT 04/M03 A2987 RMK A01 T00441031  RH  059%=      5-min Rain = 0
KFAS 211020Z 24010KT 05/M03 A2986 RMK A01 T00481031  RH  057%=      5-min Rain = 0
KFAS 211025Z 25011KT 05/M03 A2986 RMK A01 T00471032  RH  057%=      5-min Rain = 0
KFAS 211030Z 25011KT 04/M03 A2986 RMK A01 T00441032  RH  058%=      5-min Rain = 0
KFAS 211035Z 25011KT 04/M03 A2986 RMK A01 T00421031  RH  059%=      5-min Rain = 0
KFAS 211040Z 25010KT 04/M03 A2985 RMK A01 T00421030  RH  060%=      5-min Rain = 0
KFAS 211045Z 24009KT 04/M03 A2985 RMK A01 T00391030  RH  061%=      5-min Rain = 0
KFAS 211050Z 23008KT 04/M03 A2985 RMK A01 T00351031  RH  062%=      5-min Rain = 0
KFAS 211055Z 21008KT 03/M03 A2985 RMK A01 T00301032  RH  064%=      5-min Rain = 0
KFAS 211100Z 19010KT 02/M03 A2985 RMK A01 T00211034  RH  067%=      5-min Rain = 0
KFAS 211105Z 20010KT 01/M03 A2984 RMK A01 T00131032  RH  072%=      5-min Rain = 0
KFAS 211110Z 21010KT 01/M03 A2984 RMK A01 T00091032  RH  075%=      5-min Rain = 0
KFAS 211115Z 20011KT 01/M03 A2984 RMK A01 T00061032  RH  076%=      5-min Rain = 0
KFAS 211120Z 20011KT 00/M03 A2984 RMK A01 T00031033  RH  077%=      5-min Rain = 0
KFAS 211125Z 21011KT 00/M03 A2984 RMK A01 T00021032  RH  079%=      5-min Rain = 0
KFAS 211130Z 21011KT 00/M03 A2984 RMK A01 T00041031  RH  077%=      5-min Rain = 0
KFAS 211135Z 21011KT 01/M03 A2984 RMK A01 T00091030  RH  075%=      5-min Rain = 0
KFAS 211140Z 21011KT 01/M03 A2984 RMK A01 T00121032  RH  073%=      5-min Rain = 0
KFAS 211145Z 21012KT 02/M03 A2984 RMK A01 T00151031  RH  072%=      5-min Rain = 0
KFAS 211150Z 21010KT 02/M03 A2984 RMK A01 T00191030  RH  070%=      5-min Rain = 0
KFAS 211155Z 21010KT 02/M03 A2984 RMK A01 T00221029  RH  070%=      5-min Rain = 0
KFAS 211200Z 21011KT 02/M03 A2984 RMK A01 T00231029  RH  069%=      5-min Rain = 0
KFAS 211205Z 22010KT 02/M03 A2984 RMK A01 T00241029  RH  069%=      5-min Rain = 0
KFAS 211210Z 22010KT 02/M03 A2984 RMK A01 T00221029  RH  069%=      5-min Rain = 0
KFAS 211215Z 22009KT 02/M03 A2984 RMK A01 T00211030  RH  069%=      5-min Rain = 0
KFAS 211220Z 22008KT 02/M03 A2984 RMK A01 T00191031  RH  070%=      5-min Rain = 0
KFAS 211225Z 23010KT 02/M03 A2985 RMK A01 T00231030  RH  068%=      5-min Rain = 0
KFAS 211230Z 23010KT 03/M03 A2985 RMK A01 T00281029  RH  066%=      5-min Rain = 0
KFAS 211235Z 23012KT 03/M03 A2985 RMK A01 T00311029  RH  065%=      5-min Rain = 0
KFAS 211240Z 23011KT 03/M03 A2985 RMK A01 T00331030  RH  064%=      5-min Rain = 0
KFAS 211245Z 22011KT 03/M03 A2984 RMK A01 T00291030  RH  065%=      5-min Rain = 0
KFAS 211250Z 22014KT 03/M03 A2984 RMK A01 T00291029  RH  066%=      5-min Rain = 0
KFAS 211255Z 22015KT 03/M03 A2984 RMK A01 T00311029  RH  065%=      5-min Rain = 0
KFAS 211300Z 23013KT 04/M03 A2984 RMK A01 T00351030  RH  063%=      5-min Rain = 0
KFAS 211305Z 25012KT 04/M03 A2985 RMK A01 T00351030  RH  063%=      5-min Rain = 0
KFAS 211310Z 24011KT 03/M03 A2984 RMK A01 T00311031  RH  064%=      5-min Rain = 0
KFAS 211315Z 24011KT 03/M03 A2984 RMK A01 T00291031  RH  065%=      5-min Rain = 0
KFAS 211320Z 23012KT 03/M03 A2984 RMK A01 T00261031  RH  066%=      5-min Rain = 0
KFAS 211325Z 22013KT 03/M03 A2984 RMK A01 T00291030  RH  066%=      5-min Rain = 0
KFAS 211330Z 23012KT 03/M03 A2984 RMK A01 T00321031  RH  064%=      5-min Rain = 0
KFAS 211335Z 22010KT 03/M03 A2983 RMK A01 T00291031  RH  065%=      5-min Rain = 0
KFAS 211340Z 22011KT 02/M03 A2983 RMK A01 T00211031  RH  069%=      5-min Rain = 0
KFAS 211345Z 22010KT 02/M03 A2983 RMK A01 T00201031  RH  069%=      5-min Rain = 0
KFAS 211350Z 22010KT 02/M03 A2983 RMK A01 T00201031  RH  069%=      5-min Rain = 0
KFAS 211355Z 23009KT 02/M03 A2984 RMK A01 T00211032  RH  069%=      5-min Rain = 0
KFAS 211400Z 24009KT 02/M03 A2984 RMK A01 T00211031  RH  069%=      5-min Rain = 0
KFAS 211405Z 25008KT 02/M03 A2984 RMK A01 T00191032  RH  069%=      5-min Rain = 0
KFAS 211410Z 24009KT 02/M03 A2983 RMK A01 T00161033  RH  071%=      5-min Rain = 0
KFAS 211415Z 23010KT 02/M03 A2983 RMK A01 T00181033  RH  070%=      5-min Rain = 0
KFAS 211420Z 23009KT 02/M03 A2983 RMK A01 T00211033  RH  068%=      5-min Rain = 0
KFAS 211425Z 24009KT 03/M03 A2983 RMK A01 T00251034  RH  066%=      5-min Rain = 0
KFAS 211430Z 25007KT 03/M03 A2983 RMK A01 T00261034  RH  065%=      5-min Rain = 0
KFAS 211435Z 25007KT 02/M03 A2983 RMK A01 T00211034  RH  067%=      5-min Rain = 0
KFAS 211440Z 25007KT 02/M03 A2983 RMK A01 T00181032  RH  070%=      5-min Rain = 0
KFAS 211445Z 24008KT 02/M03 A2983 RMK A01 T00191031  RH  070%=      5-min Rain = 0
KFAS 211450Z 25007G12KT 03/M03 A2982 RMK A01 T00271033  RH  065%=      5-min Rain = 0
KFAS 211455Z 25008KT 03/M03 A2982 RMK A01 T00291032  RH  064%=      5-min Rain = 0
KFAS 211500Z 26007KT 03/M03 A2982 RMK A01 T00331033  RH  062%=      5-min Rain = 0
KFAS 211505Z 27006KT 03/M03 A2982 RMK A01 T00321032  RH  063%=      5-min Rain = 0
KFAS 211510Z 28006KT 03/M03 A2982 RMK A01 T00281031  RH  066%=      5-min Rain = 0
KFAS 211515Z 26009KT 02/M03 A2982 RMK A01 T00231029  RH  069%=      5-min Rain = 0
KFAS 211520Z 25010KT 03/M03 A2982 RMK A01 T00281029  RH  066%=      5-min Rain = 0
KFAS 211525Z 24009KT 04/M03 A2982 RMK A01 T00351028  RH  064%=      5-min Rain = 0
KFAS 211530Z 24007KT 04/M03 A2981 RMK A01 T00401028  RH  062%=      5-min Rain = 0
KFAS 211535Z 24007KT 05/M03 A2981 RMK A01 T00481028  RH  058%=      5-min Rain = 0
KFAS 211540Z 23011G16KT 06/M03 A2981 RMK A01 T00591033  RH  052%=      5-min Rain = 0
KFAS 211545Z 24012KT 07/M04 A2982 RMK A01 T00681036  RH  048%=      5-min Rain = 0
KFAS 211550Z 24010KT 07/M04 A2982 RMK A01 T00711037  RH  046%=      5-min Rain = 0
KFAS 211555Z 24012KT 08/M04 A2981 RMK A01 T00751037  RH  045%=      5-min Rain = 0
KFAS 211600Z 24011KT 08/M04 A2981 RMK A01 T00811036  RH  044%=      5-min Rain = 0
KFAS 211605Z 24010KT 08/M03 A2981 RMK A01 T00841032  RH  044%=      5-min Rain = 0
KFAS 211610Z 24011KT 09/M03 A2981 RMK A01 T00901033  RH  042%=      5-min Rain = 0
KFAS 211615Z 23014KT 09/M04 A2981 RMK A01 T00901038  RH  040%=      5-min Rain = 0
KFAS 211620Z 23012KT 09/M04 A2981 RMK A01 T00941039  RH  039%=      5-min Rain = 0
KFAS 211625Z 23013KT 10/M04 A2981 RMK A01 T01001042  RH  037%=      5-min Rain = 0
KFAS 211630Z 23013KT 10/M04 A2981 RMK A01 T01001043  RH  036%=      5-min Rain = 0
KFAS 211635Z 23012G17KT 11/M04 A2981 RMK A01 T01061042  RH  035%=      5-min Rain = 0
KFAS 211640Z 23013G18KT 11/M04 A2981 RMK A01 T01081044  RH  034%=      5-min Rain = 0
KFAS 211645Z 23012KT 11/M04 A2982 RMK A01 T01101044  RH  034%=      5-min Rain = 0
KFAS 211650Z 23013G18KT 12/M05 A2981 RMK A01 T01151045  RH  033%=      5-min Rain = 0
KFAS 211655Z 22015KT 12/M04 A2981 RMK A01 T01161044  RH  032%=      5-min Rain = 0
KFAS 211700Z 22015G20KT 12/M05 A2981 RMK A01 T01181045  RH  032%=      5-min Rain = 0
KFAS 211705Z 22017KT 12/M05 A2981 RMK A01 T01191048  RH  031%=      5-min Rain = 0
KFAS 211710Z 23014G21KT 12/M05 A2981 RMK A01 T01241045  RH  031%=      5-min Rain = 0
KFAS 211715Z 23017KT 13/M05 A2981 RMK A01 T01301049  RH  029%=      5-min Rain = 0
KFAS 211720Z 23015G20KT 13/M05 A2981 RMK A01 T01301049  RH  029%=      5-min Rain = 0
KFAS 211725Z 23015KT 13/M05 A2981 RMK A01 T01301050  RH  028%=      5-min Rain = 0
KFAS 211730Z 23015KT 13/M05 A2981 RMK A01 T01281050  RH  029%=      5-min Rain = 0
KFAS 211735Z 23014KT 13/M05 A298 RMK A01 T01311048  RH  029%=      5-min Rain = 0
KFAS 211740Z 23012KT 13/M04 A298 RMK A01 T01321044  RH  029%=      5-min Rain = 0
KFAS 211745Z 23014KT 13/M05 A298 RMK A01 T01331046  RH  029%=      5-min Rain = 0
KFAS 211750Z 23015G21KT 13/M05 A298 RMK A01 T01331047  RH  028%=      5-min Rain = 0
KFAS 211755Z 24016KT 14/M05 A2979 RMK A01 T01361049  RH  027%=      5-min Rain = 0
KFAS 211800Z 24015G20KT 14/M05 A2979 RMK A01 T01391049  RH  027%=      5-min Rain = 0
KFAS 211805Z 24015KT 14/M05 A2979 RMK A01 T01381048  RH  027%=      5-min Rain = 0
KFAS 211810Z 23016KT 14/M05 A2978 RMK A01 T01381048  RH  027%=      5-min Rain = 0
KFAS 211815Z 22014KT 14/M04 A2978 RMK A01 T01381043  RH  028%=      5-min Rain = 0
KFAS 211820Z 22016KT 14/M05 A2977 RMK A01 T01381046  RH  028%=      5-min Rain = 0
KFAS 211825Z 22014G19KT 14/M04 A2977 RMK A01 T01421044  RH  027%=      5-min Rain = 0
KFAS 211830Z 22013G18KT 15/M04 A2977 RMK A01 T01481041  RH  027%=      5-min Rain = 0
KFAS 211835Z 22013KT 15/M04 A2976 RMK A01 T01541038  RH  027%=      5-min Rain = 0
KFAS 211840Z 21015G20KT 16/M04 A2975 RMK A01 T01611038  RH  025%=      5-min Rain = 0
KFAS 211845Z 21016KT 16/M04 A2975 RMK A01 T01621041  RH  025%=      5-min Rain = 0
KFAS 211850Z 22015G21KT 16/M04 A2975 RMK A01 T01621039  RH  025%=      5-min Rain = 0
KFAS 211855Z 22015G21KT 17/M04 A2974 RMK A01 T01651039  RH  025%=      5-min Rain = 0
KFAS 211900Z 22016KT 17/M04 A2974 RMK A01 T01661042  RH  024%=      5-min Rain = 0
KFAS 211905Z 22015G20KT 17/M04 A2973 RMK A01 T01681040  RH  024%=      5-min Rain = 0
KFAS 211910Z 22014KT 17/M04 A2973 RMK A01 T01691040  RH  024%=      5-min Rain = 0
KFAS 211915Z 23014KT 17/M04 A2973 RMK A01 T01691040  RH  024%=      5-min Rain = 0
KFAS 211920Z 23013KT 17/M04 A2972 RMK A01 T01691041  RH  023%=      5-min Rain = 0
KFAS 211925Z 23011KT 17/M04 A2972 RMK A01 T01721039  RH  023%=      5-min Rain = 0
KFAS 211930Z 24011KT 17/M04 A2972 RMK A01 T01731039  RH  023%=      5-min Rain = 0
KFAS 211935Z 24010KT 18/M04 A2971 RMK A01 T01761039  RH  023%=      5-min Rain = 0
KFAS 211940Z 23011KT 18/M04 A2971 RMK A01 T01831038  RH  022%=      5-min Rain = 0
KFAS 211945Z 23015G20KT 19/M04 A297 RMK A01 T01861044  RH  021%=      5-min Rain = 0
KFAS 211950Z 23015G24KT 19/M05 A297 RMK A01 T01881049  RH  020%=      5-min Rain = 0
KFAS 211955Z 23016G21KT 19/M05 A2969 RMK A01 T01941052  RH  019%=      5-min Rain = 0
KFAS 212000Z 23015KT 20/M05 A2969 RMK A01 T01951049  RH  019%=      5-min Rain = 0
KFAS 212005Z 22015G20KT 19/M05 A2969 RMK A01 T01931048  RH  019%=      5-min Rain = 0
KFAS 212010Z 23015G24KT 20/M05 A2969 RMK A01 T01981051  RH  018%=      5-min Rain = 0
KFAS 212015Z 24020KT 20/M06 A2969 RMK A01 T01981064  RH  016%=      5-min Rain = 0
KFAS 212020Z 23019G25KT 20/M07 A2968 RMK A01 T01981066  RH  016%=      5-min Rain = 0
KFAS 212025Z 23017G23KT 20/M06 A2968 RMK A01 T02001064  RH  016%=      5-min Rain = 0
KFAS 212030Z 23018G23KT 20/M07 A2968 RMK A01 T02021066  RH  016%=      5-min Rain = 0
KFAS 212035Z 23018G24KT 20/M06 A2968 RMK A01 T02041062  RH  016%=      5-min Rain = 0
KFAS 212040Z 23015KT 21/M06 A2968 RMK A01 T02071057  RH  016%=      5-min Rain = 0
KFAS 212045Z 23016G21KT 21/M06 A2968 RMK A01 T02051061  RH  016%=      5-min Rain = 0
KFAS 212050Z 24018KT 20/M06 A2967 RMK A01 T02031063  RH  016%=      5-min Rain = 0
KFAS 212055Z 23018G23KT 20/M06 A2967 RMK A01 T02011063  RH  016%=      5-min Rain = 0
KFAS 212100Z 23016G21KT 20/M06 A2967 RMK A01 T02021060  RH  017%=      5-min Rain = 0
KFAS 212105Z 23015G21KT 20/M06 A2967 RMK A01 T02031058  RH  017%=      5-min Rain = 0
KFAS 212110Z 22015KT 20/M06 A2966 RMK A01 T02011056  RH  017%=      5-min Rain = 0
KFAS 212115Z 23012KT 20/M06 A2966 RMK A01 T01991055  RH  018%=      5-min Rain = 0
KFAS 212120Z 23013KT 20/M05 A2965 RMK A01 T02001054  RH  018%=      5-min Rain = 0
KFAS 212125Z 23013KT 20/M06 A2965 RMK A01 T01981056  RH  018%=      5-min Rain = 0
KFAS 212130Z 23013KT 20/M06 A2965 RMK A01 T01961056  RH  018%=      5-min Rain = 0
KFAS 212135Z 23010KT 20/M05 A2965 RMK A01 T01951051  RH  019%=      5-min Rain = 0
KFAS 212140Z 22011G19KT 19/M05 A2965 RMK A01 T01941051  RH  019%=      5-min Rain = 0
KFAS 212145Z 23015G21KT 19/M06 A2965 RMK A01 T01941057  RH  018%=      5-min Rain = 0
KFAS 212150Z 24010KT 19/M05 A2965 RMK A01 T01931052  RH  019%=      5-min Rain = 0
KFAS 212155Z 25010KT 19/M05 A2964 RMK A01 T01921051  RH  019%=      5-min Rain = 0
KFAS 212200Z 25009KT 19/M05 A2964 RMK A01 T01891049  RH  020%=      5-min Rain = 0
KFAS 212205Z 25007KT 19/M05 A2964 RMK A01 T01861045  RH  020%=      5-min Rain = 0
KFAS 212210Z 24008KT 19/M05 A2964 RMK A01 T01851047  RH  020%=      5-min Rain = 0
KFAS 212215Z 23008KT 18/M05 A2964 RMK A01 T01831046  RH  021%=      5-min Rain = 0
KFAS 212220Z 22010KT 18/M04 A2964 RMK A01 T01811044  RH  021%=      5-min Rain = 0
KFAS 212225Z 22009KT 18/M04 A2964 RMK A01 T01791041  RH  022%=      5-min Rain = 0
KFAS 212230Z 22008KT 18/M04 A2963 RMK A01 T01761040  RH  023%=      5-min Rain = 0
KFAS 212235Z 21008KT 17/M04 A2963 RMK A01 T01731039  RH  023%=      5-min Rain = 0
KFAS 212240Z 20007KT 17/M03 A2963 RMK A01 T01681028  RH  026%=      5-min Rain = 0
KFAS 212245Z 20007KT 16/M02 A2963 RMK A01 T01621021  RH  029%=      5-min Rain = 0
KFAS 212250Z 20008KT 16/M02 A2963 RMK A01 T01581019  RH  030%=      5-min Rain = 0
KFAS 212255Z 20008KT 16/M02 A2963 RMK A01 T01571018  RH  030%=      5-min Rain = 0
KFAS 212300Z 20008KT 16/M02 A2963 RMK A01 T01551018  RH  031%=      5-min Rain = 0
KFAS 212305Z 20009KT 16/M02 A2962 RMK A01 T01581023  RH  029%=      5-min Rain = 0
KFAS 212310Z 20008KT 16/M03 A2962 RMK A01 T01601025  RH  028%=      5-min Rain = 0
KFAS 212315Z 20007KT 16/M03 A2962 RMK A01 T01581025  RH  028%=      5-min Rain = 0
KFAS 212320Z 19006KT 16/M03 A2962 RMK A01 T01571025  RH  029%=      5-min Rain = 0
KFAS 212325Z 20006KT 15/M03 A2962 RMK A01 T01541026  RH  029%=      5-min Rain = 0
KFAS 212330Z 21005KT 15/M03 A2962 RMK A01 T01531028  RH  029%=      5-min Rain = 0
KFAS 212335Z 20005KT 15/M03 A2962 RMK A01 T01521029  RH  029%=      5-min Rain = 0
KFAS 212340Z 19005KT 15/M03 A2962 RMK A01 T01501028  RH  029%=      5-min Rain = 0
KFAS 212345Z 19007KT 15/M03 A2962 RMK A01 T01491031  RH  029%=      5-min Rain = 0
KFAS 212350Z 19007KT 15/M03 A2962 RMK A01 T01511034  RH  028%=      5-min Rain = 0
KFAS 212355Z 19007KT 15/M04 A2962 RMK A01 T01501036  RH  028%=      5-min Rain = 0
KFAS 220000Z 18006KT 15/M04 A2961 RMK A01 T01481038  RH  028%=      5-min Rain = 0
KFAS 220005Z 18006KT 14/M04 A2961 RMK A01 T01441039  RH  028%=      5-min Rain = 0
KFAS 220010Z 18006KT 14/M04 A2961 RMK A01 T01401039  RH  029%=      5-min Rain = 0
KFAS 220015Z 19007KT 14/M04 A2961 RMK A01 T01361037  RH  030%=      5-min Rain = 0
KFAS 220020Z 19008KT 13/M04 A2961 RMK A01 T01331036  RH  031%=      5-min Rain = 0
KFAS 220025Z 19008KT 13/M04 A2961 RMK A01 T01321037  RH  031%=      5-min Rain = 0
KFAS 220030Z 19010KT 14/M04 A296 RMK A01 T01351038  RH  030%=      5-min Rain = 0
KFAS 220035Z 19013KT 14/M04 A296 RMK A01 T01381040  RH  029%=      5-min Rain = 0
KFAS 220040Z 20014KT 14/M04 A296 RMK A01 T01431044  RH  027%=      5-min Rain = 0
KFAS 220045Z 20015G20KT 15/M05 A296 RMK A01 T01451047  RH  026%=      5-min Rain = 0
KFAS 220050Z 20015KT 15/M05 A296 RMK A01 T01461048  RH  026%=      5-min Rain = 0
KFAS 220055Z 20015KT 15/M05 A296 RMK A01 T01451050  RH  026%=      5-min Rain = 0
KFAS 220100Z 20015KT 15/M05 A2959 RMK A01 T01451051  RH  025%=      5-min Rain = 0
KFAS 220105Z 20012KT 14/M05 A296 RMK A01 T01431051  RH  026%=      5-min Rain = 0
KFAS 220110Z 21013KT 14/M05 A2959 RMK A01 T01411053  RH  026%=      5-min Rain = 0
KFAS 220115Z 21013KT 14/M05 A2959 RMK A01 T01411054  RH  026%=      5-min Rain = 0
KFAS 220120Z 21016KT 15/M06 A2959 RMK A01 T01451055  RH  025%=      5-min Rain = 0
KFAS 220125Z 21018KT 15/M06 A2959 RMK A01 T01471057  RH  024%=      5-min Rain = 0
KFAS 220130Z 21020G29KT 15/M06 A2958 RMK A01 T01511059  RH  023%=      5-min Rain = 0
KFAS 220135Z 21020G28KT 15/M06 A2958 RMK A01 T01531060  RH  022%=      5-min Rain = 0
KFAS 220140Z 21021G26KT 16/M06 A2958 RMK A01 T01551061  RH  022%=      5-min Rain = 0
KFAS 220145Z 21021G27KT 16/M06 A2958 RMK A01 T01551062  RH  022%=      5-min Rain = 0
KFAS 220150Z 21020G25KT 15/M06 A2959 RMK A01 T01541061  RH  022%=      5-min Rain = 0
KFAS 220155Z 21019G27KT 15/M06 A2959 RMK A01 T01531060  RH  023%=      5-min Rain = 0
KFAS 220200Z 21020G25KT 15/M06 A2958 RMK A01 T01511059  RH  023%=      5-min Rain = 0
KFAS 220205Z 20021KT 15/M06 A2958 RMK A01 T01521060  RH  023%=      5-min Rain = 0
KFAS 220210Z 20021G26KT 15/M06 A2958 RMK A01 T01511059  RH  023%=      5-min Rain = 0
KFAS 220215Z 20021G27KT 15/M06 A2958 RMK A01 T01511059  RH  023%=      5-min Rain = 0
KFAS 220220Z 20021G27KT 15/M06 A2958 RMK A01 T01521059  RH  023%=      5-min Rain = 0
KFAS 220225Z 20022G27KT 15/M06 A2958 RMK A01 T01521059  RH  023%=      5-min Rain = 0
KFAS 220230Z 21021KT 15/M06 A2958 RMK A01 T01531059  RH  023%=      5-min Rain = 0
KFAS 220235Z 21021G27KT 15/M06 A2958 RMK A01 T01521058  RH  023%=      5-min Rain = 0
KFAS 220240Z 21021G29KT 15/M06 A2958 RMK A01 T01521058  RH  023%=      5-min Rain = 0
KFAS 220245Z 21023KT 15/M06 A2958 RMK A01 T01541059  RH  023%=      5-min Rain = 0
KFAS 220250Z 21021G27KT 16/M06 A2958 RMK A01 T01551058  RH  023%=      5-min Rain = 0
KFAS 220255Z 21022G27KT 16/M06 A2958 RMK A01 T01551058  RH  023%=      5-min Rain = 0
KFAS 220300Z 21021G28KT 16/M06 A2959 RMK A01 T01561058  RH  022%=      5-min Rain = 0
KFAS 220305Z 21019G24KT 15/M06 A2959 RMK A01 T01541057  RH  023%=      5-min Rain = 0
KFAS 220310Z 21019G25KT 15/M06 A2959 RMK A01 T01521057  RH  023%=      5-min Rain = 0
KFAS 220315Z 21018KT 15/M06 A2959 RMK A01 T01511056  RH  023%=      5-min Rain = 0
KFAS 220320Z 21018KT 15/M06 A296 RMK A01 T01481056  RH  024%=      5-min Rain = 0
KFAS 220325Z 21017G22KT 15/M06 A296 RMK A01 T01471056  RH  024%=      5-min Rain = 0
KFAS 220330Z 21017KT 15/M06 A296 RMK A01 T01461055  RH  024%=      5-min Rain = 0
KFAS 220335Z 21016G21KT 15/M06 A296 RMK A01 T01451055  RH  025%=      5-min Rain = 0
KFAS 220340Z 21016KT 14/M05 A296 RMK A01 T01441054  RH  025%=      5-min Rain = 0
KFAS 220345Z 20017KT 14/M05 A296 RMK A01 T01421054  RH  025%=      5-min Rain = 0
KFAS 220350Z 20015G21KT 14/M05 A296 RMK A01 T01401054  RH  026%=      5-min Rain = 0
KFAS 220355Z 20016KT 14/M05 A296 RMK A01 T01381054  RH  026%=      5-min Rain = 0
KFAS 220400Z 20016G21KT 14/M05 A296 RMK A01 T01381054  RH  026%=      5-min Rain = 0
KFAS 220405Z 20016G22KT 14/M05 A296 RMK A01 T01381054  RH  026%=      5-min Rain = 0
KFAS 220410Z 20015KT 14/M05 A296 RMK A01 T01361053  RH  026%=      5-min Rain = 0
KFAS 220415Z 21014KT 13/M05 A296 RMK A01 T01341053  RH  027%=      5-min Rain = 0
KFAS 220420Z 21014KT 13/M05 A296 RMK A01 T01321052  RH  027%=      5-min Rain = 0
KFAS 220425Z 20013KT 13/M05 A296 RMK A01 T01301052  RH  028%=      5-min Rain = 0
KFAS 220430Z 20013KT 13/M05 A296 RMK A01 T01261052  RH  029%=      5-min Rain = 0
KFAS 220435Z 20013KT 13/M05 A296 RMK A01 T01251052  RH  029%=      5-min Rain = 0
KFAS 220440Z 20013KT 12/M05 A296 RMK A01 T01231051  RH  029%=      5-min Rain = 0
KFAS 220445Z 20013KT 12/M05 A296 RMK A01 T01201051  RH  030%=      5-min Rain = 0
KFAS 220450Z 20013KT 12/M05 A296 RMK A01 T01171050  RH  031%=      5-min Rain = 0
KFAS 220455Z 20011KT 11/M05 A296 RMK A01 T01131050  RH  032%=      5-min Rain = 0
KFAS 220500Z 20011KT 11/M05 A296 RMK A01 T01071051  RH  033%=      5-min Rain = 0
KFAS 220505Z 20010KT 10/M05 A296 RMK A01 T01031050  RH  034%=      5-min Rain = 0
KFAS 220510Z 20011KT 10/M05 A296 RMK A01 T01001050  RH  035%=      5-min Rain = 0
KFAS 220515Z 20012KT 10/M05 A296 RMK A01 T01021051  RH  034%=      5-min Rain = 0
KFAS 220520Z 21013KT 11/M05 A296 RMK A01 T01061052  RH  033%=      5-min Rain = 0
KFAS 220525Z 20014KT 11/M05 A296 RMK A01 T01111053  RH  031%=      5-min Rain = 0
KFAS 220530Z 20015KT 11/M05 A296 RMK A01 T01141054  RH  030%=      5-min Rain = 0
KFAS 220535Z 20015KT 12/M06 A296 RMK A01 T01171055  RH  030%=      5-min Rain = 0
KFAS 220540Z 20014KT 12/M06 A296 RMK A01 T01191056  RH  029%=      5-min Rain = 0
KFAS 220545Z 20014KT 12/M06 A296 RMK A01 T01181056  RH  029%=      5-min Rain = 0
KFAS 220550Z 20014KT 12/M06 A296 RMK A01 T01181057  RH  029%=      5-min Rain = 0
KFAS 220555Z 20013KT 12/M06 A2961 RMK A01 T01181057  RH  029%=      5-min Rain = 0

Page generated in 0.0095 seconds.